sensor_id;sensor_type;location;lat;lon;timestamp;temperature;humidity
19088;DHT22;9676;50.916;13.352;2023-05-19T00:00:50;15.50;37.60
19088;DHT22;9676;50.916;13.352;2023-05-19T00:03:48;15.50;37.50
19088;DHT22;9676;50.916;13.352;2023-05-19T00:06:39;15.50;37.70
19088;DHT22;9676;50.916;13.352;2023-05-19T00:09:29;15.50;37.70
19088;DHT22;9676;50.916;13.352;2023-05-19T00:12:21;15.40;37.60
19088;DHT22;9676;50.916;13.352;2023-05-19T00:15:12;15.40;37.70
19088;DHT22;9676;50.916;13.352;2023-05-19T00:18:02;15.30;37.70
19088;DHT22;9676;50.916;13.352;2023-05-19T00:20:52;15.30;37.80
19088;DHT22;9676;50.916;13.352;2023-05-19T00:23:41;15.30;37.90
19088;DHT22;9676;50.916;13.352;2023-05-19T00:26:31;15.20;37.90
19088;DHT22;9676;50.916;13.352;2023-05-19T00:29:27;15.20;38.10
19088;DHT22;9676;50.916;13.352;2023-05-19T00:32:17;15.20;38.10
19088;DHT22;9676;50.916;13.352;2023-05-19T00:35:07;15.20;38.10
19088;DHT22;9676;50.916;13.352;2023-05-19T00:37:57;15.20;38.30
19088;DHT22;9676;50.916;13.352;2023-05-19T00:40:46;15.20;38.10
19088;DHT22;9676;50.916;13.352;2023-05-19T00:43:36;15.20;38.20
19088;DHT22;9676;50.916;13.352;2023-05-19T00:46:26;15.20;38.20
19088;DHT22;9676;50.916;13.352;2023-05-19T00:49:17;15.20;38.30
19088;DHT22;9676;50.916;13.352;2023-05-19T00:52:06;15.30;38.30
19088;DHT22;9676;50.916;13.352;2023-05-19T00:54:56;15.20;38.30
19088;DHT22;9676;50.916;13.352;2023-05-19T00:57:45;15.20;38.40
19088;DHT22;9676;50.916;13.352;2023-05-19T01:00:36;15.30;38.50
19088;DHT22;9676;50.916;13.352;2023-05-19T01:03:28;15.30;38.50
19088;DHT22;9676;50.916;13.352;2023-05-19T01:06:18;15.20;38.50
19088;DHT22;9676;50.916;13.352;2023-05-19T01:09:09;15.20;38.30
19088;DHT22;9676;50.916;13.352;2023-05-19T01:11:58;15.20;38.40
19088;DHT22;9676;50.916;13.352;2023-05-19T01:14:48;15.20;38.40
19088;DHT22;9676;50.916;13.352;2023-05-19T01:17:44;15.20;38.50
19088;DHT22;9676;50.916;13.352;2023-05-19T01:20:41;15.20;38.70
19088;DHT22;9676;50.916;13.352;2023-05-19T01:23:41;15.10;38.60
19088;DHT22;9676;50.916;13.352;2023-05-19T01:26:53;15.10;38.70
19088;DHT22;9676;50.916;13.352;2023-05-19T01:30:23;15.10;38.90
19088;DHT22;9676;50.916;13.352;2023-05-19T01:33:14;15.00;39.00
19088;DHT22;9676;50.916;13.352;2023-05-19T01:36:07;15.00;38.60
19088;DHT22;9676;50.916;13.352;2023-05-19T01:38:58;15.00;38.60
19088;DHT22;9676;50.916;13.352;2023-05-19T01:41:50;15.00;38.70
19088;DHT22;9676;50.916;13.352;2023-05-19T01:44:40;14.90;38.70
19088;DHT22;9676;50.916;13.352;2023-05-19T01:47:32;14.90;38.70
19088;DHT22;9676;50.916;13.352;2023-05-19T01:50:25;14.90;38.90
19088;DHT22;9676;50.916;13.352;2023-05-19T01:53:14;14.80;38.70
19088;DHT22;9676;50.916;13.352;2023-05-19T01:56:05;14.80;39.40
19088;DHT22;9676;50.916;13.352;2023-05-19T01:59:01;14.80;38.80
19088;DHT22;9676;50.916;13.352;2023-05-19T02:01:57;14.70;38.80
19088;DHT22;9676;50.916;13.352;2023-05-19T02:04:55;14.70;38.80
19088;DHT22;9676;50.916;13.352;2023-05-19T02:07:53;14.70;38.90
19088;DHT22;9676;50.916;13.352;2023-05-19T02:10:57;14.60;38.80
19088;DHT22;9676;50.916;13.352;2023-05-19T02:13:53;14.60;39.00
19088;DHT22;9676;50.916;13.352;2023-05-19T02:16:46;14.50;38.80
19088;DHT22;9676;50.916;13.352;2023-05-19T02:19:38;14.40;38.70
19088;DHT22;9676;50.916;13.352;2023-05-19T02:22:29;14.40;38.80
19088;DHT22;9676;50.916;13.352;2023-05-19T02:25:18;14.30;38.90
19088;DHT22;9676;50.916;13.352;2023-05-19T02:28:08;14.30;38.90
19088;DHT22;9676;50.916;13.352;2023-05-19T02:30:57;14.30;39.00
19088;DHT22;9676;50.916;13.352;2023-05-19T02:33:48;14.20;39.00
19088;DHT22;9676;50.916;13.352;2023-05-19T02:36:39;14.20;39.10
19088;DHT22;9676;50.916;13.352;2023-05-19T02:39:31;14.20;39.20
19088;DHT22;9676;50.916;13.352;2023-05-19T02:42:22;14.20;39.30
19088;DHT22;9676;50.916;13.352;2023-05-19T02:45:12;14.20;39.30
19088;DHT22;9676;50.916;13.352;2023-05-19T02:48:02;14.10;39.30
19088;DHT22;9676;50.916;13.352;2023-05-19T02:50:52;14.20;39.50
19088;DHT22;9676;50.916;13.352;2023-05-19T02:53:41;14.10;39.40
19088;DHT22;9676;50.916;13.352;2023-05-19T02:56:32;14.10;39.40
19088;DHT22;9676;50.916;13.352;2023-05-19T02:59:21;14.10;39.50
19088;DHT22;9676;50.916;13.352;2023-05-19T03:02:12;14.10;39.60
19088;DHT22;9676;50.916;13.352;2023-05-19T03:05:02;14.10;39.70
19088;DHT22;9676;50.916;13.352;2023-05-19T03:07:51;14.10;39.80
19088;DHT22;9676;50.916;13.352;2023-05-19T03:10:41;14.10;39.80
19088;DHT22;9676;50.916;13.352;2023-05-19T03:13:31;14.10;40.00
19088;DHT22;9676;50.916;13.352;2023-05-19T03:16:21;14.10;40.00
19088;DHT22;9676;50.916;13.352;2023-05-19T03:19:11;14.10;40.10
19088;DHT22;9676;50.916;13.352;2023-05-19T03:22:00;14.10;40.10
19088;DHT22;9676;50.916;13.352;2023-05-19T03:24:50;14.10;40.20
19088;DHT22;9676;50.916;13.352;2023-05-19T03:27:41;14.20;40.30
19088;DHT22;9676;50.916;13.352;2023-05-19T03:30:31;14.10;40.20
19088;DHT22;9676;50.916;13.352;2023-05-19T03:33:41;14.20;40.40
19088;DHT22;9676;50.916;13.352;2023-05-19T03:36:31;14.20;40.40
19088;DHT22;9676;50.916;13.352;2023-05-19T03:39:31;14.20;40.40
19088;DHT22;9676;50.916;13.352;2023-05-19T03:42:20;14.20;40.40
19088;DHT22;9676;50.916;13.352;2023-05-19T03:45:10;14.20;40.40
19088;DHT22;9676;50.916;13.352;2023-05-19T03:48:01;14.20;40.40
19088;DHT22;9676;50.916;13.352;2023-05-19T03:51:09;14.20;40.40
19088;DHT22;9676;50.916;13.352;2023-05-19T03:53:59;14.20;40.30
19088;DHT22;9676;50.916;13.352;2023-05-19T03:56:48;14.20;40.40
19088;DHT22;9676;50.916;13.352;2023-05-19T03:59:38;14.20;40.40
19088;DHT22;9676;50.916;13.352;2023-05-19T04:02:28;14.10;40.30
19088;DHT22;9676;50.916;13.352;2023-05-19T04:05:19;14.10;40.50
19088;DHT22;9676;50.916;13.352;2023-05-19T04:08:09;14.10;40.60
19088;DHT22;9676;50.916;13.352;2023-05-19T04:10:58;14.10;40.60
19088;DHT22;9676;50.916;13.352;2023-05-19T04:13:49;14.10;40.60
19088;DHT22;9676;50.916;13.352;2023-05-19T04:16:39;14.20;40.80
19088;DHT22;9676;50.916;13.352;2023-05-19T04:19:28;14.20;40.90
19088;DHT22;9676;50.916;13.352;2023-05-19T04:22:19;14.20;40.90
19088;DHT22;9676;50.916;13.352;2023-05-19T04:25:09;14.20;41.00
19088;DHT22;9676;50.916;13.352;2023-05-19T04:27:59;14.20;40.90
19088;DHT22;9676;50.916;13.352;2023-05-19T04:30:50;14.30;41.00
19088;DHT22;9676;50.916;13.352;2023-05-19T04:33:40;14.30;41.10
19088;DHT22;9676;50.916;13.352;2023-05-19T04:36:30;14.30;41.20
19088;DHT22;9676;50.916;13.352;2023-05-19T04:39:23;14.30;41.40
19088;DHT22;9676;50.916;13.352;2023-05-19T04:42:12;14.40;41.60
19088;DHT22;9676;50.916;13.352;2023-05-19T04:45:07;14.40;41.80
19088;DHT22;9676;50.916;13.352;2023-05-19T04:48:00;14.50;42.00
19088;DHT22;9676;50.916;13.352;2023-05-19T04:50:49;14.60;42.20
19088;DHT22;9676;50.916;13.352;2023-05-19T04:53:40;14.80;42.40
19088;DHT22;9676;50.916;13.352;2023-05-19T04:56:33;14.90;42.40
19088;DHT22;9676;50.916;13.352;2023-05-19T04:59:23;15.10;42.40
19088;DHT22;9676;50.916;13.352;2023-05-19T05:02:12;15.20;42.40
19088;DHT22;9676;50.916;13.352;2023-05-19T05:05:02;15.30;42.30
19088;DHT22;9676;50.916;13.352;2023-05-19T05:07:52;15.40;42.40
19088;DHT22;9676;50.916;13.352;2023-05-19T05:10:43;15.50;42.40
19088;DHT22;9676;50.916;13.352;2023-05-19T05:13:35;15.60;42.50
19088;DHT22;9676;50.916;13.352;2023-05-19T05:16:25;15.70;42.70
19088;DHT22;9676;50.916;13.352;2023-05-19T05:19:17;15.80;42.60
19088;DHT22;9676;50.916;13.352;2023-05-19T05:22:09;15.90;42.50
19088;DHT22;9676;50.916;13.352;2023-05-19T05:25:00;15.90;42.50
19088;DHT22;9676;50.916;13.352;2023-05-19T05:27:50;16.00;42.60
19088;DHT22;9676;50.916;13.352;2023-05-19T05:30:41;16.10;42.60
19088;DHT22;9676;50.916;13.352;2023-05-19T05:33:33;16.10;42.90
19088;DHT22;9676;50.916;13.352;2023-05-19T05:36:23;16.30;43.20
19088;DHT22;9676;50.916;13.352;2023-05-19T05:39:13;16.50;43.40
19088;DHT22;9676;50.916;13.352;2023-05-19T05:42:05;16.60;43.50
19088;DHT22;9676;50.916;13.352;2023-05-19T05:44:55;16.90;43.70
19088;DHT22;9676;50.916;13.352;2023-05-19T05:47:47;17.10;43.60
19088;DHT22;9676;50.916;13.352;2023-05-19T05:50:37;17.20;43.60
19088;DHT22;9676;50.916;13.352;2023-05-19T05:53:29;17.30;43.60
19088;DHT22;9676;50.916;13.352;2023-05-19T05:56:21;17.50;43.40
19088;DHT22;9676;50.916;13.352;2023-05-19T05:59:14;17.60;43.40
19088;DHT22;9676;50.916;13.352;2023-05-19T06:02:05;17.70;43.40
19088;DHT22;9676;50.916;13.352;2023-05-19T06:04:56;17.80;43.30
19088;DHT22;9676;50.916;13.352;2023-05-19T06:07:46;17.80;43.10
19088;DHT22;9676;50.916;13.352;2023-05-19T06:10:41;17.80;43.00
19088;DHT22;9676;50.916;13.352;2023-05-19T06:13:32;17.80;43.00
19088;DHT22;9676;50.916;13.352;2023-05-19T06:16:22;17.80;42.90
19088;DHT22;9676;50.916;13.352;2023-05-19T06:19:13;17.80;42.90
19088;DHT22;9676;50.916;13.352;2023-05-19T06:22:05;17.80;43.00
19088;DHT22;9676;50.916;13.352;2023-05-19T06:24:54;17.80;42.90
19088;DHT22;9676;50.916;13.352;2023-05-19T06:27:44;17.80;43.00
19088;DHT22;9676;50.916;13.352;2023-05-19T06:30:35;17.90;43.30
19088;DHT22;9676;50.916;13.352;2023-05-19T06:33:45;18.00;43.60
19088;DHT22;9676;50.916;13.352;2023-05-19T06:36:36;18.20;44.00
19088;DHT22;9676;50.916;13.352;2023-05-19T06:39:26;18.30;44.30
19088;DHT22;9676;50.916;13.352;2023-05-19T06:42:16;18.60;44.50
19088;DHT22;9676;50.916;13.352;2023-05-19T06:45:16;18.90;44.40
19088;DHT22;9676;50.916;13.352;2023-05-19T06:48:10;19.10;44.30
19088;DHT22;9676;50.916;13.352;2023-05-19T06:51:00;19.30;44.10
19088;DHT22;9676;50.916;13.352;2023-05-19T06:53:51;19.40;43.80
19088;DHT22;9676;50.916;13.352;2023-05-19T06:56:44;19.50;43.80
19088;DHT22;9676;50.916;13.352;2023-05-19T06:59:34;19.70;44.00
19088;DHT22;9676;50.916;13.352;2023-05-19T07:02:27;19.80;43.80
19088;DHT22;9676;50.916;13.352;2023-05-19T07:05:17;19.90;43.70
19088;DHT22;9676;50.916;13.352;2023-05-19T07:08:12;20.10;44.10
19088;DHT22;9676;50.916;13.352;2023-05-19T07:11:02;20.30;44.20
19088;DHT22;9676;50.916;13.352;2023-05-19T07:13:53;20.60;44.30
19088;DHT22;9676;50.916;13.352;2023-05-19T07:16:47;20.80;44.80
19088;DHT22;9676;50.916;13.352;2023-05-19T07:19:37;21.20;45.10
19088;DHT22;9676;50.916;13.352;2023-05-19T07:22:27;21.60;45.40
19088;DHT22;9676;50.916;13.352;2023-05-19T07:25:16;22.10;45.80
19088;DHT22;9676;50.916;13.352;2023-05-19T07:28:07;22.70;46.00
19088;DHT22;9676;50.916;13.352;2023-05-19T07:30:58;23.30;46.20
19088;DHT22;9676;50.916;13.352;2023-05-19T07:33:48;24.00;46.80
19088;DHT22;9676;50.916;13.352;2023-05-19T07:36:41;24.70;46.60
19088;DHT22;9676;50.916;13.352;2023-05-19T07:39:30;25.50;46.60
19088;DHT22;9676;50.916;13.352;2023-05-19T07:42:20;26.20;46.20
19088;DHT22;9676;50.916;13.352;2023-05-19T07:45:09;26.80;45.50
19088;DHT22;9676;50.916;13.352;2023-05-19T07:48:08;27.40;45.20
19088;DHT22;9676;50.916;13.352;2023-05-19T07:50:57;28.00;44.50
19088;DHT22;9676;50.916;13.352;2023-05-19T07:53:47;28.60;44.00
19088;DHT22;9676;50.916;13.352;2023-05-19T07:56:36;29.00;43.50
19088;DHT22;9676;50.916;13.352;2023-05-19T07:59:26;29.50;43.30
19088;DHT22;9676;50.916;13.352;2023-05-19T08:02:15;29.80;42.20
19088;DHT22;9676;50.916;13.352;2023-05-19T08:05:08;30.10;42.00
19088;DHT22;9676;50.916;13.352;2023-05-19T08:07:58;30.40;41.50
19088;DHT22;9676;50.916;13.352;2023-05-19T08:10:47;30.50;41.00
19088;DHT22;9676;50.916;13.352;2023-05-19T08:13:37;30.60;40.40
19088;DHT22;9676;50.916;13.352;2023-05-19T08:16:26;30.50;36.10
19088;DHT22;9676;50.916;13.352;2023-05-19T08:19:16;30.50;37.90
19088;DHT22;9676;50.916;13.352;2023-05-19T08:22:07;30.50;38.80
19088;DHT22;9676;50.916;13.352;2023-05-19T08:24:56;30.50;38.90
19088;DHT22;9676;50.916;13.352;2023-05-19T08:27:46;30.60;39.00
19088;DHT22;9676;50.916;13.352;2023-05-19T08:30:35;30.70;38.70
19088;DHT22;9676;50.916;13.352;2023-05-19T08:33:25;30.70;37.70
19088;DHT22;9676;50.916;13.352;2023-05-19T08:36:15;30.60;36.90
19088;DHT22;9676;50.916;13.352;2023-05-19T08:39:05;30.40;36.40
19088;DHT22;9676;50.916;13.352;2023-05-19T08:41:55;30.20;36.80
19088;DHT22;9676;50.916;13.352;2023-05-19T08:44:44;30.10;36.30
19088;DHT22;9676;50.916;13.352;2023-05-19T08:47:34;29.90;36.40
19088;DHT22;9676;50.916;13.352;2023-05-19T08:50:29;29.70;35.80
19088;DHT22;9676;50.916;13.352;2023-05-19T08:53:23;29.50;35.60
19088;DHT22;9676;50.916;13.352;2023-05-19T08:56:22;29.30;36.10
19088;DHT22;9676;50.916;13.352;2023-05-19T08:59:14;29.30;36.20
19088;DHT22;9676;50.916;13.352;2023-05-19T09:02:04;29.20;36.20
19088;DHT22;9676;50.916;13.352;2023-05-19T09:04:55;29.10;35.80
19088;DHT22;9676;50.916;13.352;2023-05-19T09:07:46;29.00;35.70
19088;DHT22;9676;50.916;13.352;2023-05-19T09:10:36;28.80;35.20
19088;DHT22;9676;50.916;13.352;2023-05-19T09:13:27;28.60;35.20
19088;DHT22;9676;50.916;13.352;2023-05-19T09:16:17;28.40;35.80
19088;DHT22;9676;50.916;13.352;2023-05-19T09:19:12;28.30;36.10
19088;DHT22;9676;50.916;13.352;2023-05-19T09:22:03;28.40;36.30
19088;DHT22;9676;50.916;13.352;2023-05-19T09:24:53;28.70;36.60
19088;DHT22;9676;50.916;13.352;2023-05-19T09:27:45;28.80;36.60
19088;DHT22;9676;50.916;13.352;2023-05-19T09:30:36;29.10;36.50
19088;DHT22;9676;50.916;13.352;2023-05-19T09:33:26;29.20;35.80
19088;DHT22;9676;50.916;13.352;2023-05-19T09:36:16;29.40;35.70
19088;DHT22;9676;50.916;13.352;2023-05-19T09:39:12;29.40;35.10
19088;DHT22;9676;50.916;13.352;2023-05-19T09:42:03;29.50;35.20
19088;DHT22;9676;50.916;13.352;2023-05-19T09:44:58;29.60;35.60
19088;DHT22;9676;50.916;13.352;2023-05-19T09:47:50;29.80;35.70
19088;DHT22;9676;50.916;13.352;2023-05-19T09:50:42;30.10;36.50
19088;DHT22;9676;50.916;13.352;2023-05-19T09:53:33;30.50;37.00
19088;DHT22;9676;50.916;13.352;2023-05-19T09:56:23;30.90;36.20
19088;DHT22;9676;50.916;13.352;2023-05-19T09:59:13;31.30;35.60
19088;DHT22;9676;50.916;13.352;2023-05-19T10:02:03;31.50;35.00
19088;DHT22;9676;50.916;13.352;2023-05-19T10:04:55;31.60;34.60
19088;DHT22;9676;50.916;13.352;2023-05-19T10:07:45;31.60;34.50
19088;DHT22;9676;50.916;13.352;2023-05-19T10:10:36;31.70;35.00
19088;DHT22;9676;50.916;13.352;2023-05-19T10:13:26;32.00;35.00
19088;DHT22;9676;50.916;13.352;2023-05-19T10:16:17;32.20;35.00
19088;DHT22;9676;50.916;13.352;2023-05-19T10:19:09;32.60;34.50
19088;DHT22;9676;50.916;13.352;2023-05-19T10:22:01;32.70;34.50
19088;DHT22;9676;50.916;13.352;2023-05-19T10:24:51;33.00;34.50
19088;DHT22;9676;50.916;13.352;2023-05-19T10:27:45;33.20;34.10
19088;DHT22;9676;50.916;13.352;2023-05-19T10:30:43;33.20;33.40
19088;DHT22;9676;50.916;13.352;2023-05-19T10:33:41;33.20;33.00
19088;DHT22;9676;50.916;13.352;2023-05-19T10:36:47;33.10;32.60
19088;DHT22;9676;50.916;13.352;2023-05-19T10:39:41;32.90;32.40
19088;DHT22;9676;50.916;13.352;2023-05-19T10:42:37;32.70;32.00
19088;DHT22;9676;50.916;13.352;2023-05-19T10:45:33;32.40;31.70
19088;DHT22;9676;50.916;13.352;2023-05-19T10:48:26;32.10;32.00
19088;DHT22;9676;50.916;13.352;2023-05-19T10:51:27;31.90;32.80
19088;DHT22;9676;50.916;13.352;2023-05-19T10:54:39;31.90;33.20
19088;DHT22;9676;50.916;13.352;2023-05-19T10:57:30;31.90;33.00
19088;DHT22;9676;50.916;13.352;2023-05-19T11:00:27;32.00;33.20
19088;DHT22;9676;50.916;13.352;2023-05-19T11:03:18;32.00;32.90
19088;DHT22;9676;50.916;13.352;2023-05-19T11:06:24;31.90;33.00
19088;DHT22;9676;50.916;13.352;2023-05-19T11:09:17;31.90;32.60
19088;DHT22;9676;50.916;13.352;2023-05-19T11:12:22;31.80;32.10
19088;DHT22;9676;50.916;13.352;2023-05-19T11:15:13;31.50;31.70
19088;DHT22;9676;50.916;13.352;2023-05-19T11:18:03;31.10;31.40
19088;DHT22;9676;50.916;13.352;2023-05-19T11:20:55;30.70;31.10
19088;DHT22;9676;50.916;13.352;2023-05-19T11:23:50;30.20;30.70
19088;DHT22;9676;50.916;13.352;2023-05-19T11:26:41;29.60;30.50
19088;DHT22;9676;50.916;13.352;2023-05-19T11:29:33;29.10;30.50
19088;DHT22;9676;50.916;13.352;2023-05-19T11:32:26;28.50;30.70
19088;DHT22;9676;50.916;13.352;2023-05-19T11:35:17;28.00;30.80
19088;DHT22;9676;50.916;13.352;2023-05-19T11:38:08;27.50;31.00
19088;DHT22;9676;50.916;13.352;2023-05-19T11:40:59;27.00;31.20
19088;DHT22;9676;50.916;13.352;2023-05-19T11:43:49;26.60;31.50
19088;DHT22;9676;50.916;13.352;2023-05-19T11:46:39;26.30;31.60
19088;DHT22;9676;50.916;13.352;2023-05-19T11:49:29;26.00;31.90
19088;DHT22;9676;50.916;13.352;2023-05-19T11:52:20;25.60;32.20
19088;DHT22;9676;50.916;13.352;2023-05-19T11:55:14;25.30;32.70
19088;DHT22;9676;50.916;13.352;2023-05-19T11:58:04;25.10;33.00
19088;DHT22;9676;50.916;13.352;2023-05-19T12:00:53;24.90;33.20
19088;DHT22;9676;50.916;13.352;2023-05-19T12:03:44;24.70;33.50
19088;DHT22;9676;50.916;13.352;2023-05-19T12:06:34;24.60;34.00
19088;DHT22;9676;50.916;13.352;2023-05-19T12:09:27;24.60;34.20
19088;DHT22;9676;50.916;13.352;2023-05-19T12:12:18;24.60;34.40
19088;DHT22;9676;50.916;13.352;2023-05-19T12:15:10;24.60;34.40
19088;DHT22;9676;50.916;13.352;2023-05-19T12:18:00;24.60;34.60
19088;DHT22;9676;50.916;13.352;2023-05-19T12:20:51;24.60;34.50
19088;DHT22;9676;50.916;13.352;2023-05-19T12:23:41;24.50;34.40
19088;DHT22;9676;50.916;13.352;2023-05-19T12:26:31;24.40;34.50
19088;DHT22;9676;50.916;13.352;2023-05-19T12:29:27;24.40;34.60
19088;DHT22;9676;50.916;13.352;2023-05-19T12:32:17;24.30;35.10
19088;DHT22;9676;50.916;13.352;2023-05-19T12:35:07;24.20;35.10
19088;DHT22;9676;50.916;13.352;2023-05-19T12:38:03;24.20;35.20
19088;DHT22;9676;50.916;13.352;2023-05-19T12:40:52;24.10;35.40
19088;DHT22;9676;50.916;13.352;2023-05-19T12:43:42;24.10;35.50
19088;DHT22;9676;50.916;13.352;2023-05-19T12:46:31;24.00;35.50
19088;DHT22;9676;50.916;13.352;2023-05-19T12:49:21;23.90;35.30
19088;DHT22;9676;50.916;13.352;2023-05-19T12:52:12;23.90;35.30
19088;DHT22;9676;50.916;13.352;2023-05-19T12:55:05;23.80;35.50
19088;DHT22;9676;50.916;13.352;2023-05-19T12:57:56;23.80;35.70
19088;DHT22;9676;50.916;13.352;2023-05-19T13:00:46;23.70;35.50
19088;DHT22;9676;50.916;13.352;2023-05-19T13:03:39;23.70;35.50
19088;DHT22;9676;50.916;13.352;2023-05-19T13:06:29;23.60;35.80
19088;DHT22;9676;50.916;13.352;2023-05-19T13:09:21;23.60;36.10
19088;DHT22;9676;50.916;13.352;2023-05-19T13:12:12;23.50;36.10
19088;DHT22;9676;50.916;13.352;2023-05-19T13:15:02;23.50;36.30
19088;DHT22;9676;50.916;13.352;2023-05-19T13:17:52;23.40;36.40
19088;DHT22;9676;50.916;13.352;2023-05-19T13:20:43;23.40;36.60
19088;DHT22;9676;50.916;13.352;2023-05-19T13:23:34;23.50;36.70
19088;DHT22;9676;50.916;13.352;2023-05-19T13:26:24;23.40;36.30
19088;DHT22;9676;50.916;13.352;2023-05-19T13:29:15;23.40;36.30
19088;DHT22;9676;50.916;13.352;2023-05-19T13:32:05;23.30;36.40
19088;DHT22;9676;50.916;13.352;2023-05-19T13:34:55;23.30;36.60
19088;DHT22;9676;50.916;13.352;2023-05-19T13:37:45;23.30;36.60
19088;DHT22;9676;50.916;13.352;2023-05-19T13:40:35;23.30;36.60
19088;DHT22;9676;50.916;13.352;2023-05-19T13:43:25;23.30;36.70
19088;DHT22;9676;50.916;13.352;2023-05-19T13:46:16;23.30;36.60
19088;DHT22;9676;50.916;13.352;2023-05-19T13:49:13;23.20;36.60
19088;DHT22;9676;50.916;13.352;2023-05-19T13:52:03;23.20;37.00
19088;DHT22;9676;50.916;13.352;2023-05-19T13:54:54;23.10;37.10
19088;DHT22;9676;50.916;13.352;2023-05-19T13:57:44;23.00;37.60
19088;DHT22;9676;50.916;13.352;2023-05-19T14:00:33;22.90;37.40
19088;DHT22;9676;50.916;13.352;2023-05-19T14:03:25;22.80;37.50
19088;DHT22;9676;50.916;13.352;2023-05-19T14:06:14;22.70;37.60
19088;DHT22;9676;50.916;13.352;2023-05-19T14:09:04;22.60;37.60
19088;DHT22;9676;50.916;13.352;2023-05-19T14:11:54;22.60;37.90
19088;DHT22;9676;50.916;13.352;2023-05-19T14:14:43;22.60;38.10
19088;DHT22;9676;50.916;13.352;2023-05-19T14:17:35;22.60;38.10
19088;DHT22;9676;50.916;13.352;2023-05-19T14:20:26;22.60;38.30
19088;DHT22;9676;50.916;13.352;2023-05-19T14:23:16;22.60;38.40
19088;DHT22;9676;50.916;13.352;2023-05-19T14:26:06;22.60;38.50
19088;DHT22;9676;50.916;13.352;2023-05-19T14:28:56;22.60;38.50
19088;DHT22;9676;50.916;13.352;2023-05-19T14:31:45;22.60;38.60
19088;DHT22;9676;50.916;13.352;2023-05-19T14:34:35;22.60;38.70
19088;DHT22;9676;50.916;13.352;2023-05-19T14:37:26;22.60;38.60
19088;DHT22;9676;50.916;13.352;2023-05-19T14:40:16;22.60;38.60
19088;DHT22;9676;50.916;13.352;2023-05-19T14:43:05;22.60;38.60
19088;DHT22;9676;50.916;13.352;2023-05-19T14:45:55;22.60;38.70
19088;DHT22;9676;50.916;13.352;2023-05-19T14:48:45;22.50;38.60
19088;DHT22;9676;50.916;13.352;2023-05-19T14:51:34;22.50;38.60
19088;DHT22;9676;50.916;13.352;2023-05-19T14:54:25;22.50;38.60
19088;DHT22;9676;50.916;13.352;2023-05-19T14:57:15;22.50;38.60
19088;DHT22;9676;50.916;13.352;2023-05-19T15:00:05;22.40;38.70
19088;DHT22;9676;50.916;13.352;2023-05-19T15:02:57;22.50;38.90
19088;DHT22;9676;50.916;13.352;2023-05-19T15:05:46;22.50;38.90
19088;DHT22;9676;50.916;13.352;2023-05-19T15:08:36;22.60;39.10
19088;DHT22;9676;50.916;13.352;2023-05-19T15:11:28;22.50;38.90
19088;DHT22;9676;50.916;13.352;2023-05-19T15:14:18;22.60;39.20
19088;DHT22;9676;50.916;13.352;2023-05-19T15:17:07;22.60;39.30
19088;DHT22;9676;50.916;13.352;2023-05-19T15:19:57;22.60;39.30
19088;DHT22;9676;50.916;13.352;2023-05-19T15:22:47;22.50;39.40
19088;DHT22;9676;50.916;13.352;2023-05-19T15:25:36;22.40;39.40
19088;DHT22;9676;50.916;13.352;2023-05-19T15:28:27;22.30;39.70
19088;DHT22;9676;50.916;13.352;2023-05-19T15:31:17;22.30;39.90
19088;DHT22;9676;50.916;13.352;2023-05-19T15:34:06;22.20;39.90
19088;DHT22;9676;50.916;13.352;2023-05-19T15:36:56;22.10;39.90
19088;DHT22;9676;50.916;13.352;2023-05-19T15:39:45;22.00;40.10
19088;DHT22;9676;50.916;13.352;2023-05-19T15:42:35;21.90;40.00
19088;DHT22;9676;50.916;13.352;2023-05-19T15:45:26;21.90;40.20
19088;DHT22;9676;50.916;13.352;2023-05-19T15:48:15;21.90;40.70
19088;DHT22;9676;50.916;13.352;2023-05-19T15:51:05;21.80;40.50
19088;DHT22;9676;50.916;13.352;2023-05-19T15:53:54;21.70;40.30
19088;DHT22;9676;50.916;13.352;2023-05-19T15:56:44;21.70;40.40
19088;DHT22;9676;50.916;13.352;2023-05-19T15:59:33;21.60;40.70
19088;DHT22;9676;50.916;13.352;2023-05-19T16:02:24;21.50;40.50
19088;DHT22;9676;50.916;13.352;2023-05-19T16:05:13;21.50;40.60
19088;DHT22;9676;50.916;13.352;2023-05-19T16:08:03;21.40;40.50
19088;DHT22;9676;50.916;13.352;2023-05-19T16:10:55;21.40;40.80
19088;DHT22;9676;50.916;13.352;2023-05-19T16:13:44;21.30;40.80
19088;DHT22;9676;50.916;13.352;2023-05-19T16:16:34;21.20;40.90
19088;DHT22;9676;50.916;13.352;2023-05-19T16:19:25;21.10;40.90
19088;DHT22;9676;50.916;13.352;2023-05-19T16:22:14;21.10;41.50
19088;DHT22;9676;50.916;13.352;2023-05-19T16:25:06;21.00;41.20
19088;DHT22;9676;50.916;13.352;2023-05-19T16:27:56;20.90;41.30
19088;DHT22;9676;50.916;13.352;2023-05-19T16:30:45;20.80;41.50
19088;DHT22;9676;50.916;13.352;2023-05-19T16:33:35;20.70;41.50
19088;DHT22;9676;50.916;13.352;2023-05-19T16:36:26;20.60;41.90
19088;DHT22;9676;50.916;13.352;2023-05-19T16:39:15;20.50;41.60
19088;DHT22;9676;50.916;13.352;2023-05-19T16:42:05;20.40;41.70
19088;DHT22;9676;50.916;13.352;2023-05-19T16:44:54;20.40;41.80
19088;DHT22;9676;50.916;13.352;2023-05-19T16:47:44;20.30;41.90
19088;DHT22;9676;50.916;13.352;2023-05-19T16:50:33;20.20;41.70
19088;DHT22;9676;50.916;13.352;2023-05-19T16:53:24;20.00;42.00
19088;DHT22;9676;50.916;13.352;2023-05-19T16:56:14;19.90;42.10
19088;DHT22;9676;50.916;13.352;2023-05-19T16:59:03;19.80;42.60
19088;DHT22;9676;50.916;13.352;2023-05-19T17:01:53;19.70;42.60
19088;DHT22;9676;50.916;13.352;2023-05-19T17:04:43;19.60;42.70
19088;DHT22;9676;50.916;13.352;2023-05-19T17:07:33;19.50;43.00
19088;DHT22;9676;50.916;13.352;2023-05-19T17:10:23;19.40;42.70
19088;DHT22;9676;50.916;13.352;2023-05-19T17:13:13;19.30;43.00
19088;DHT22;9676;50.916;13.352;2023-05-19T17:16:02;19.30;42.90
19088;DHT22;9676;50.916;13.352;2023-05-19T17:18:52;19.20;42.90
19088;DHT22;9676;50.916;13.352;2023-05-19T17:21:41;19.10;43.60
19088;DHT22;9676;50.916;13.352;2023-05-19T17:24:31;19.00;43.40
19088;DHT22;9676;50.916;13.352;2023-05-19T17:27:22;18.90;43.20
19088;DHT22;9676;50.916;13.352;2023-05-19T17:30:12;18.90;43.90
19088;DHT22;9676;50.916;13.352;2023-05-19T17:33:01;18.90;44.20
19088;DHT22;9676;50.916;13.352;2023-05-19T17:35:51;18.80;43.80
19088;DHT22;9676;50.916;13.352;2023-05-19T17:38:40;18.70;43.70
19088;DHT22;9676;50.916;13.352;2023-05-19T17:41:30;18.70;43.70
19088;DHT22;9676;50.916;13.352;2023-05-19T17:44:21;18.70;43.80
19088;DHT22;9676;50.916;13.352;2023-05-19T17:47:10;18.60;43.90
19088;DHT22;9676;50.916;13.352;2023-05-19T17:50:00;18.60;44.00
19088;DHT22;9676;50.916;13.352;2023-05-19T17:52:50;18.60;44.00
19088;DHT22;9676;50.916;13.352;2023-05-19T17:55:40;18.50;43.90
19088;DHT22;9676;50.916;13.352;2023-05-19T17:58:30;18.50;44.30
19088;DHT22;9676;50.916;13.352;2023-05-19T18:01:22;18.40;44.60